sensor_id;sensor_type;location;lat;lon;timestamp;P1;durP1;ratioP1;P2;durP2;ratioP2
23206;SDS011;11773;52.570;13.052;2023-09-30T00:01:45;1.73;;;1.20;;
23206;SDS011;11773;52.570;13.052;2023-09-30T00:04:16;1.00;;;0.90;;
23206;SDS011;11773;52.570;13.052;2023-09-30T00:06:46;1.17;;;0.93;;
23206;SDS011;11773;52.570;13.052;2023-09-30T00:09:16;2.57;;;1.30;;
23206;SDS011;11773;52.570;13.052;2023-09-30T00:11:45;1.20;;;1.00;;
23206;SDS011;11773;52.570;13.052;2023-09-30T00:14:15;1.00;;;0.70;;
23206;SDS011;11773;52.570;13.052;2023-09-30T00:16:45;1.67;;;1.07;;
23206;SDS011;11773;52.570;13.052;2023-09-30T00:19:14;2.30;;;1.60;;
23206;SDS011;11773;52.570;13.052;2023-09-30T00:21:44;1.20;;;0.97;;
23206;SDS011;11773;52.570;13.052;2023-09-30T00:24:14;1.23;;;0.90;;
23206;SDS011;11773;52.570;13.052;2023-09-30T00:26:43;1.70;;;1.00;;
23206;SDS011;11773;52.570;13.052;2023-09-30T00:29:13;1.00;;;0.90;;
23206;SDS011;11773;52.570;13.052;2023-09-30T00:31:43;1.47;;;0.90;;
23206;SDS011;11773;52.570;13.052;2023-09-30T00:34:12;0.70;;;0.70;;
23206;SDS011;11773;52.570;13.052;2023-09-30T00:36:42;1.27;;;0.80;;
23206;SDS011;11773;52.570;13.052;2023-09-30T00:39:11;1.10;;;0.80;;
23206;SDS011;11773;52.570;13.052;2023-09-30T00:41:41;1.33;;;1.10;;
23206;SDS011;11773;52.570;13.052;2023-09-30T00:44:11;1.30;;;0.70;;
23206;SDS011;11773;52.570;13.052;2023-09-30T00:46:40;1.40;;;1.10;;
23206;SDS011;11773;52.570;13.052;2023-09-30T00:49:10;1.80;;;1.00;;
23206;SDS011;11773;52.570;13.052;2023-09-30T00:51:41;1.97;;;1.20;;
23206;SDS011;11773;52.570;13.052;2023-09-30T00:54:13;1.17;;;0.90;;
23206;SDS011;11773;52.570;13.052;2023-09-30T00:56:44;1.90;;;0.90;;
23206;SDS011;11773;52.570;13.052;2023-09-30T00:59:16;1.27;;;0.83;;
23206;SDS011;11773;52.570;13.052;2023-09-30T01:01:47;1.00;;;0.70;;
23206;SDS011;11773;52.570;13.052;2023-09-30T01:04:17;0.50;;;0.50;;
23206;SDS011;11773;52.570;13.052;2023-09-30T01:06:48;0.70;;;0.50;;
23206;SDS011;11773;52.570;13.052;2023-09-30T01:09:18;1.57;;;0.83;;
23206;SDS011;11773;52.570;13.052;2023-09-30T01:11:48;1.03;;;0.70;;
23206;SDS011;11773;52.570;13.052;2023-09-30T01:14:33;0.87;;;0.60;;
23206;SDS011;11773;52.570;13.052;2023-09-30T01:17:01;0.60;;;0.50;;
23206;SDS011;11773;52.570;13.052;2023-09-30T01:19:33;0.67;;;0.53;;
23206;SDS011;11773;52.570;13.052;2023-09-30T01:22:03;0.50;;;0.50;;
23206;SDS011;11773;52.570;13.052;2023-09-30T01:24:44;0.40;;;0.40;;
23206;SDS011;11773;52.570;13.052;2023-09-30T01:27:11;0.33;;;0.33;;
23206;SDS011;11773;52.570;13.052;2023-09-30T01:29:42;0.37;;;0.30;;
23206;SDS011;11773;52.570;13.052;2023-09-30T01:32:12;0.57;;;0.50;;
23206;SDS011;11773;52.570;13.052;2023-09-30T01:34:41;0.60;;;0.43;;
23206;SDS011;11773;52.570;13.052;2023-09-30T01:37:11;0.73;;;0.73;;
23206;SDS011;11773;52.570;13.052;2023-09-30T01:39:40;0.87;;;0.40;;
23206;SDS011;11773;52.570;13.052;2023-09-30T01:42:12;0.80;;;0.50;;
23206;SDS011;11773;52.570;13.052;2023-09-30T01:44:41;0.80;;;0.80;;
23206;SDS011;11773;52.570;13.052;2023-09-30T01:47:11;0.40;;;0.33;;
23206;SDS011;11773;52.570;13.052;2023-09-30T01:49:40;0.40;;;0.40;;
23206;SDS011;11773;52.570;13.052;2023-09-30T01:52:10;0.77;;;0.40;;
23206;SDS011;11773;52.570;13.052;2023-09-30T01:54:39;0.57;;;0.57;;
23206;SDS011;11773;52.570;13.052;2023-09-30T01:57:09;0.63;;;0.57;;
23206;SDS011;11773;52.570;13.052;2023-09-30T01:59:39;0.93;;;0.50;;
23206;SDS011;11773;52.570;13.052;2023-09-30T02:02:08;0.50;;;0.43;;
23206;SDS011;11773;52.570;13.052;2023-09-30T02:04:38;0.77;;;0.60;;
23206;SDS011;11773;52.570;13.052;2023-09-30T02:07:08;0.87;;;0.60;;
23206;SDS011;11773;52.570;13.052;2023-09-30T02:09:37;0.87;;;0.70;;
23206;SDS011;11773;52.570;13.052;2023-09-30T02:12:07;1.07;;;0.80;;
23206;SDS011;11773;52.570;13.052;2023-09-30T02:14:37;1.13;;;0.67;;
23206;SDS011;11773;52.570;13.052;2023-09-30T02:17:08;0.77;;;0.50;;
23206;SDS011;11773;52.570;13.052;2023-09-30T02:19:38;0.53;;;0.53;;
23206;SDS011;11773;52.570;13.052;2023-09-30T02:22:08;1.13;;;0.70;;
23206;SDS011;11773;52.570;13.052;2023-09-30T02:24:39;1.00;;;0.70;;
23206;SDS011;11773;52.570;13.052;2023-09-30T02:27:08;1.03;;;0.60;;
23206;SDS011;11773;52.570;13.052;2023-09-30T02:29:39;0.50;;;0.50;;
23206;SDS011;11773;52.570;13.052;2023-09-30T02:32:09;1.47;;;1.13;;
23206;SDS011;11773;52.570;13.052;2023-09-30T02:34:40;1.93;;;0.77;;
23206;SDS011;11773;52.570;13.052;2023-09-30T02:37:11;1.10;;;0.80;;
23206;SDS011;11773;52.570;13.052;2023-09-30T02:39:41;1.10;;;0.80;;
23206;SDS011;11773;52.570;13.052;2023-09-30T02:42:11;1.37;;;1.00;;
23206;SDS011;11773;52.570;13.052;2023-09-30T02:44:41;1.00;;;0.90;;
23206;SDS011;11773;52.570;13.052;2023-09-30T02:47:11;1.27;;;0.63;;
23206;SDS011;11773;52.570;13.052;2023-09-30T02:49:41;1.20;;;0.80;;
23206;SDS011;11773;52.570;13.052;2023-09-30T02:52:10;0.87;;;0.67;;
23206;SDS011;11773;52.570;13.052;2023-09-30T02:54:40;1.00;;;0.60;;
23206;SDS011;11773;52.570;13.052;2023-09-30T02:57:10;0.63;;;0.57;;
23206;SDS011;11773;52.570;13.052;2023-09-30T02:59:39;1.00;;;0.77;;
23206;SDS011;11773;52.570;13.052;2023-09-30T03:02:09;0.30;;;0.30;;
23206;SDS011;11773;52.570;13.052;2023-09-30T03:04:39;0.30;;;0.30;;
23206;SDS011;11773;52.570;13.052;2023-09-30T03:07:09;0.83;;;0.70;;
23206;SDS011;11773;52.570;13.052;2023-09-30T03:09:39;0.90;;;0.60;;
23206;SDS011;11773;52.570;13.052;2023-09-30T03:12:10;0.73;;;0.50;;
23206;SDS011;11773;52.570;13.052;2023-09-30T03:14:41;0.50;;;0.50;;
23206;SDS011;11773;52.570;13.052;2023-09-30T03:17:12;1.30;;;0.50;;
23206;SDS011;11773;52.570;13.052;2023-09-30T03:19:41;0.73;;;0.60;;
23206;SDS011;11773;52.570;13.052;2023-09-30T03:22:11;1.07;;;0.50;;
23206;SDS011;11773;52.570;13.052;2023-09-30T03:24:41;1.23;;;0.50;;
23206;SDS011;11773;52.570;13.052;2023-09-30T03:27:10;0.53;;;0.50;;
23206;SDS011;11773;52.570;13.052;2023-09-30T03:29:40;0.40;;;0.40;;
23206;SDS011;11773;52.570;13.052;2023-09-30T03:32:09;0.50;;;0.50;;
23206;SDS011;11773;52.570;13.052;2023-09-30T03:34:39;0.43;;;0.43;;
23206;SDS011;11773;52.570;13.052;2023-09-30T03:37:10;0.97;;;0.70;;
23206;SDS011;11773;52.570;13.052;2023-09-30T03:39:40;1.30;;;0.60;;
23206;SDS011;11773;52.570;13.052;2023-09-30T03:42:10;1.07;;;0.90;;
23206;SDS011;11773;52.570;13.052;2023-09-30T03:44:40;0.73;;;0.50;;
23206;SDS011;11773;52.570;13.052;2023-09-30T03:47:10;0.60;;;0.60;;
23206;SDS011;11773;52.570;13.052;2023-09-30T03:49:39;1.17;;;0.63;;
23206;SDS011;11773;52.570;13.052;2023-09-30T03:52:10;0.80;;;0.80;;
23206;SDS011;11773;52.570;13.052;2023-09-30T03:54:42;0.70;;;0.70;;
23206;SDS011;11773;52.570;13.052;2023-09-30T03:57:12;1.07;;;0.70;;
23206;SDS011;11773;52.570;13.052;2023-09-30T03:59:43;0.60;;;0.60;;
23206;SDS011;11773;52.570;13.052;2023-09-30T04:02:13;0.60;;;0.60;;
23206;SDS011;11773;52.570;13.052;2023-09-30T04:04:43;0.77;;;0.57;;
23206;SDS011;11773;52.570;13.052;2023-09-30T04:07:13;1.00;;;0.60;;
23206;SDS011;11773;52.570;13.052;2023-09-30T04:09:43;1.07;;;0.70;;
23206;SDS011;11773;52.570;13.052;2023-09-30T04:12:13;0.80;;;0.80;;
23206;SDS011;11773;52.570;13.052;2023-09-30T04:14:43;0.87;;;0.80;;
23206;SDS011;11773;52.570;13.052;2023-09-30T04:17:13;0.60;;;0.50;;
23206;SDS011;11773;52.570;13.052;2023-09-30T04:19:43;1.17;;;0.70;;
23206;SDS011;11773;52.570;13.052;2023-09-30T04:22:13;0.43;;;0.43;;
23206;SDS011;11773;52.570;13.052;2023-09-30T04:24:43;0.70;;;0.50;;
23206;SDS011;11773;52.570;13.052;2023-09-30T04:27:13;0.83;;;0.70;;
23206;SDS011;11773;52.570;13.052;2023-09-30T04:29:43;0.53;;;0.53;;
23206;SDS011;11773;52.570;13.052;2023-09-30T04:32:13;0.70;;;0.70;;
23206;SDS011;11773;52.570;13.052;2023-09-30T04:34:43;0.70;;;0.70;;
23206;SDS011;11773;52.570;13.052;2023-09-30T04:37:13;0.80;;;0.60;;
23206;SDS011;11773;52.570;13.052;2023-09-30T04:39:43;0.83;;;0.70;;
23206;SDS011;11773;52.570;13.052;2023-09-30T04:42:13;0.60;;;0.60;;
23206;SDS011;11773;52.570;13.052;2023-09-30T04:44:44;0.70;;;0.67;;
23206;SDS011;11773;52.570;13.052;2023-09-30T04:47:14;0.50;;;0.50;;
23206;SDS011;11773;52.570;13.052;2023-09-30T04:49:45;0.60;;;0.50;;
23206;SDS011;11773;52.570;13.052;2023-09-30T04:52:15;0.80;;;0.60;;
23206;SDS011;11773;52.570;13.052;2023-09-30T04:54:44;0.60;;;0.40;;
23206;SDS011;11773;52.570;13.052;2023-09-30T04:57:14;1.47;;;0.70;;
23206;SDS011;11773;52.570;13.052;2023-09-30T04:59:44;0.70;;;0.70;;
23206;SDS011;11773;52.570;13.052;2023-09-30T05:02:13;1.47;;;0.97;;
23206;SDS011;11773;52.570;13.052;2023-09-30T05:04:43;0.90;;;0.73;;
23206;SDS011;11773;52.570;13.052;2023-09-30T05:07:13;0.80;;;0.80;;
23206;SDS011;11773;52.570;13.052;2023-09-30T05:09:42;1.57;;;0.67;;
23206;SDS011;11773;52.570;13.052;2023-09-30T05:12:12;0.60;;;0.60;;
23206;SDS011;11773;52.570;13.052;2023-09-30T05:14:43;1.13;;;0.80;;
23206;SDS011;11773;52.570;13.052;2023-09-30T05:17:13;1.03;;;0.40;;
23206;SDS011;11773;52.570;13.052;2023-09-30T05:19:42;1.33;;;0.60;;
23206;SDS011;11773;52.570;13.052;2023-09-30T05:22:12;1.52;;;0.70;;
23206;SDS011;11773;52.570;13.052;2023-09-30T05:24:42;0.57;;;0.50;;
23206;SDS011;11773;52.570;13.052;2023-09-30T05:27:12;0.43;;;0.43;;
23206;SDS011;11773;52.570;13.052;2023-09-30T05:29:41;0.40;;;0.40;;
23206;SDS011;11773;52.570;13.052;2023-09-30T05:32:11;1.10;;;1.00;;
23206;SDS011;11773;52.570;13.052;2023-09-30T05:34:42;0.80;;;0.70;;
23206;SDS011;11773;52.570;13.052;2023-09-30T05:37:11;0.97;;;0.70;;
23206;SDS011;11773;52.570;13.052;2023-09-30T05:39:41;0.70;;;0.70;;
23206;SDS011;11773;52.570;13.052;2023-09-30T05:42:11;1.00;;;0.90;;
23206;SDS011;11773;52.570;13.052;2023-09-30T05:44:41;1.10;;;0.80;;
23206;SDS011;11773;52.570;13.052;2023-09-30T05:47:11;2.10;;;1.80;;
23206;SDS011;11773;52.570;13.052;2023-09-30T05:49:42;3.10;;;2.70;;
23206;SDS011;11773;52.570;13.052;2023-09-30T05:52:12;2.87;;;2.40;;
23206;SDS011;11773;52.570;13.052;2023-09-30T05:54:41;2.50;;;2.00;;
23206;SDS011;11773;52.570;13.052;2023-09-30T05:57:11;1.87;;;1.70;;
23206;SDS011;11773;52.570;13.052;2023-09-30T05:59:41;1.37;;;1.23;;
23206;SDS011;11773;52.570;13.052;2023-09-30T06:02:12;1.10;;;1.00;;
23206;SDS011;11773;52.570;13.052;2023-09-30T06:04:42;1.27;;;1.10;;
23206;SDS011;11773;52.570;13.052;2023-09-30T06:07:13;1.07;;;0.93;;
23206;SDS011;11773;52.570;13.052;2023-09-30T06:09:43;1.00;;;0.83;;
23206;SDS011;11773;52.570;13.052;2023-09-30T06:12:14;2.20;;;1.00;;
23206;SDS011;11773;52.570;13.052;2023-09-30T06:14:43;1.53;;;1.07;;
23206;SDS011;11773;52.570;13.052;2023-09-30T06:17:13;1.23;;;0.90;;
23206;SDS011;11773;52.570;13.052;2023-09-30T06:19:43;0.77;;;0.77;;
23206;SDS011;11773;52.570;13.052;2023-09-30T06:22:14;1.23;;;0.90;;
23206;SDS011;11773;52.570;13.052;2023-09-30T06:24:44;1.17;;;0.70;;
23206;SDS011;11773;52.570;13.052;2023-09-30T06:27:15;1.43;;;0.97;;
23206;SDS011;11773;52.570;13.052;2023-09-30T06:29:45;0.70;;;0.70;;
23206;SDS011;11773;52.570;13.052;2023-09-30T06:32:15;1.57;;;1.20;;
23206;SDS011;11773;52.570;13.052;2023-09-30T06:34:45;1.10;;;0.90;;
23206;SDS011;11773;52.570;13.052;2023-09-30T06:37:15;1.77;;;1.23;;
23206;SDS011;11773;52.570;13.052;2023-09-30T06:39:45;1.10;;;1.00;;
23206;SDS011;11773;52.570;13.052;2023-09-30T06:42:16;0.70;;;0.70;;
23206;SDS011;11773;52.570;13.052;2023-09-30T06:44:46;2.60;;;0.93;;
23206;SDS011;11773;52.570;13.052;2023-09-30T06:47:16;1.30;;;1.20;;
23206;SDS011;11773;52.570;13.052;2023-09-30T06:49:45;1.10;;;0.90;;
23206;SDS011;11773;52.570;13.052;2023-09-30T06:52:16;1.30;;;0.97;;
23206;SDS011;11773;52.570;13.052;2023-09-30T06:54:47;1.37;;;0.90;;
23206;SDS011;11773;52.570;13.052;2023-09-30T06:57:16;1.07;;;0.93;;
23206;SDS011;11773;52.570;13.052;2023-09-30T06:59:46;1.17;;;1.00;;
23206;SDS011;11773;52.570;13.052;2023-09-30T07:02:16;1.50;;;0.87;;
23206;SDS011;11773;52.570;13.052;2023-09-30T07:04:45;2.03;;;1.13;;
23206;SDS011;11773;52.570;13.052;2023-09-30T07:07:15;1.73;;;1.07;;
23206;SDS011;11773;52.570;13.052;2023-09-30T07:09:44;1.60;;;1.07;;
23206;SDS011;11773;52.570;13.052;2023-09-30T07:12:15;2.00;;;1.10;;
23206;SDS011;11773;52.570;13.052;2023-09-30T07:14:44;1.57;;;1.20;;
23206;SDS011;11773;52.570;13.052;2023-09-30T07:17:14;1.30;;;1.20;;
23206;SDS011;11773;52.570;13.052;2023-09-30T07:19:44;1.10;;;1.00;;
23206;SDS011;11773;52.570;13.052;2023-09-30T07:22:15;2.77;;;1.30;;
23206;SDS011;11773;52.570;13.052;2023-09-30T07:24:47;2.37;;;1.50;;
23206;SDS011;11773;52.570;13.052;2023-09-30T07:27:16;2.47;;;1.50;;
23206;SDS011;11773;52.570;13.052;2023-09-30T07:29:48;1.77;;;1.13;;
23206;SDS011;11773;52.570;13.052;2023-09-30T07:32:17;1.83;;;1.00;;
23206;SDS011;11773;52.570;13.052;2023-09-30T07:34:49;1.50;;;0.90;;
23206;SDS011;11773;52.570;13.052;2023-09-30T07:37:19;1.00;;;0.90;;
23206;SDS011;11773;52.570;13.052;2023-09-30T07:39:49;1.30;;;1.20;;
23206;SDS011;11773;52.570;13.052;2023-09-30T07:42:19;0.87;;;0.83;;
23206;SDS011;11773;52.570;13.052;2023-09-30T07:44:49;1.40;;;0.90;;
23206;SDS011;11773;52.570;13.052;2023-09-30T07:47:19;1.50;;;1.00;;
23206;SDS011;11773;52.570;13.052;2023-09-30T07:49:50;1.40;;;1.03;;
23206;SDS011;11773;52.570;13.052;2023-09-30T07:52:19;2.10;;;1.00;;
23206;SDS011;11773;52.570;13.052;2023-09-30T07:54:49;1.93;;;1.30;;
23206;SDS011;11773;52.570;13.052;2023-09-30T07:57:19;2.67;;;1.30;;
23206;SDS011;11773;52.570;13.052;2023-09-30T07:59:48;2.20;;;1.23;;
23206;SDS011;11773;52.570;13.052;2023-09-30T08:02:18;1.37;;;0.90;;
23206;SDS011;11773;52.570;13.052;2023-09-30T08:04:48;1.67;;;1.00;;
23206;SDS011;11773;52.570;13.052;2023-09-30T08:07:18;2.13;;;1.10;;
23206;SDS011;11773;52.570;13.052;2023-09-30T08:09:47;2.17;;;1.57;;
23206;SDS011;11773;52.570;13.052;2023-09-30T08:12:17;1.90;;;1.20;;
23206;SDS011;11773;52.570;13.052;2023-09-30T08:14:47;1.83;;;1.10;;
23206;SDS011;11773;52.570;13.052;2023-09-30T08:17:18;1.60;;;1.10;;
23206;SDS011;11773;52.570;13.052;2023-09-30T08:19:48;1.80;;;1.13;;
23206;SDS011;11773;52.570;13.052;2023-09-30T08:22:18;2.30;;;1.17;;
23206;SDS011;11773;52.570;13.052;2023-09-30T08:24:50;1.77;;;1.40;;
23206;SDS011;11773;52.570;13.052;2023-09-30T08:27:19;3.07;;;1.80;;
23206;SDS011;11773;52.570;13.052;2023-09-30T08:29:51;1.50;;;1.30;;
23206;SDS011;11773;52.570;13.052;2023-09-30T08:32:21;2.47;;;1.33;;
23206;SDS011;11773;52.570;13.052;2023-09-30T08:34:51;1.57;;;1.20;;
23206;SDS011;11773;52.570;13.052;2023-09-30T08:37:21;1.60;;;0.97;;
23206;SDS011;11773;52.570;13.052;2023-09-30T08:39:51;1.37;;;1.00;;
23206;SDS011;11773;52.570;13.052;2023-09-30T08:42:20;2.13;;;1.17;;
23206;SDS011;11773;52.570;13.052;2023-09-30T08:44:56;1.70;;;1.00;;
23206;SDS011;11773;52.570;13.052;2023-09-30T08:47:26;3.43;;;1.53;;
23206;SDS011;11773;52.570;13.052;2023-09-30T08:49:58;1.80;;;1.30;;
23206;SDS011;11773;52.570;13.052;2023-09-30T08:52:32;2.50;;;1.17;;
23206;SDS011;11773;52.570;13.052;2023-09-30T08:55:04;1.77;;;1.37;;
23206;SDS011;11773;52.570;13.052;2023-09-30T08:57:39;1.53;;;1.10;;
23206;SDS011;11773;52.570;13.052;2023-09-30T09:00:11;1.13;;;1.00;;
23206;SDS011;11773;52.570;13.052;2023-09-30T09:02:43;1.67;;;0.90;;
23206;SDS011;11773;52.570;13.052;2023-09-30T09:05:12;1.57;;;1.00;;
23206;SDS011;11773;52.570;13.052;2023-09-30T09:07:43;0.90;;;0.70;;
23206;SDS011;11773;52.570;13.052;2023-09-30T09:10:13;1.67;;;1.10;;
23206;SDS011;11773;52.570;13.052;2023-09-30T09:12:43;2.70;;;1.40;;
23206;SDS011;11773;52.570;13.052;2023-09-30T09:15:22;1.93;;;1.50;;
23206;SDS011;11773;52.570;13.052;2023-09-30T09:17:54;4.07;;;1.60;;
23206;SDS011;11773;52.570;13.052;2023-09-30T09:20:24;2.00;;;1.50;;
23206;SDS011;11773;52.570;13.052;2023-09-30T09:22:54;2.53;;;1.33;;
23206;SDS011;11773;52.570;13.052;2023-09-30T09:25:26;2.03;;;1.27;;
23206;SDS011;11773;52.570;13.052;2023-09-30T09:27:55;1.83;;;1.17;;
23206;SDS011;11773;52.570;13.052;2023-09-30T09:30:26;1.93;;;1.30;;
23206;SDS011;11773;52.570;13.052;2023-09-30T09:33:00;2.07;;;1.50;;
23206;SDS011;11773;52.570;13.052;2023-09-30T09:35:33;1.87;;;1.23;;
23206;SDS011;11773;52.570;13.052;2023-09-30T09:38:04;1.53;;;1.23;;
23206;SDS011;11773;52.570;13.052;2023-09-30T09:40:36;2.10;;;1.30;;
23206;SDS011;11773;52.570;13.052;2023-09-30T09:43:09;1.73;;;1.10;;
23206;SDS011;11773;52.570;13.052;2023-09-30T09:45:38;2.70;;;1.20;;
23206;SDS011;11773;52.570;13.052;2023-09-30T09:48:09;1.27;;;0.80;;
23206;SDS011;11773;52.570;13.052;2023-09-30T09:50:39;1.70;;;0.80;;
23206;SDS011;11773;52.570;13.052;2023-09-30T09:53:10;1.60;;;1.07;;
23206;SDS011;11773;52.570;13.052;2023-09-30T09:55:42;2.97;;;1.17;;
23206;SDS011;11773;52.570;13.052;2023-09-30T09:58:13;1.53;;;1.00;;
23206;SDS011;11773;52.570;13.052;2023-09-30T10:00:44;1.50;;;1.03;;
23206;SDS011;11773;52.570;13.052;2023-09-30T10:03:14;2.33;;;1.37;;
23206;SDS011;11773;52.570;13.052;2023-09-30T10:05:44;1.67;;;0.90;;
23206;SDS011;11773;52.570;13.052;2023-09-30T10:08:16;1.83;;;1.20;;
23206;SDS011;11773;52.570;13.052;2023-09-30T10:10:50;1.87;;;1.03;;
23206;SDS011;11773;52.570;13.052;2023-09-30T10:19:10;1.10;;;0.80;;
23206;SDS011;11773;52.570;13.052;2023-09-30T10:24:53;1.73;;;0.97;;
23206;SDS011;11773;52.570;13.052;2023-09-30T10:27:27;2.07;;;1.13;;
23206;SDS011;11773;52.570;13.052;2023-09-30T10:40:58;2.13;;;1.30;;
23206;SDS011;11773;52.570;13.052;2023-09-30T10:43:30;0.77;;;0.70;;
23206;SDS011;11773;52.570;13.052;2023-09-30T10:46:42;1.93;;;0.90;;
23206;SDS011;11773;52.570;13.052;2023-09-30T10:49:14;0.87;;;0.83;;
23206;SDS011;11773;52.570;13.052;2023-09-30T10:51:46;1.50;;;0.90;;
23206;SDS011;11773;52.570;13.052;2023-09-30T10:54:24;1.67;;;1.00;;
23206;SDS011;11773;52.570;13.052;2023-09-30T10:56:56;2.20;;;1.10;;
23206;SDS011;11773;52.570;13.052;2023-09-30T10:59:28;2.07;;;0.97;;
23206;SDS011;11773;52.570;13.052;2023-09-30T11:01:59;2.73;;;1.27;;
23206;SDS011;11773;52.570;13.052;2023-09-30T11:04:29;2.43;;;1.00;;
23206;SDS011;11773;52.570;13.052;2023-09-30T11:07:00;2.43;;;1.20;;
23206;SDS011;11773;52.570;13.052;2023-09-30T11:09:31;1.63;;;1.00;;
23206;SDS011;11773;52.570;13.052;2023-09-30T11:12:04;1.83;;;1.10;;
23206;SDS011;11773;52.570;13.052;2023-09-30T11:14:38;1.77;;;0.93;;
23206;SDS011;11773;52.570;13.052;2023-09-30T11:17:07;1.63;;;1.07;;
23206;SDS011;11773;52.570;13.052;2023-09-30T11:19:45;2.47;;;1.23;;
23206;SDS011;11773;52.570;13.052;2023-09-30T11:22:18;1.10;;;1.00;;
23206;SDS011;11773;52.570;13.052;2023-09-30T11:24:48;2.00;;;1.00;;
23206;SDS011;11773;52.570;13.052;2023-09-30T11:27:24;1.10;;;0.83;;
23206;SDS011;11773;52.570;13.052;2023-09-30T11:29:54;1.30;;;0.90;;
23206;SDS011;11773;52.570;13.052;2023-09-30T11:32:26;1.80;;;1.13;;
23206;SDS011;11773;52.570;13.052;2023-09-30T11:34:57;1.77;;;1.13;;
23206;SDS011;11773;52.570;13.052;2023-09-30T11:37:33;1.50;;;1.10;;
23206;SDS011;11773;52.570;13.052;2023-09-30T11:40:12;2.73;;;1.33;;
23206;SDS011;11773;52.570;13.052;2023-09-30T11:43:06;1.40;;;0.87;;
23206;SDS011;11773;52.570;13.052;2023-09-30T11:45:38;1.83;;;0.97;;
23206;SDS011;11773;52.570;13.052;2023-09-30T11:48:17;1.10;;;0.87;;
23206;SDS011;11773;52.570;13.052;2023-09-30T11:50:48;1.73;;;1.03;;
23206;SDS011;11773;52.570;13.052;2023-09-30T11:53:20;2.70;;;1.10;;
23206;SDS011;11773;52.570;13.052;2023-09-30T11:55:49;1.23;;;0.87;;
23206;SDS011;11773;52.570;13.052;2023-09-30T11:58:20;1.33;;;0.83;;
23206;SDS011;11773;52.570;13.052;2023-09-30T12:00:52;0.77;;;0.67;;
23206;SDS011;11773;52.570;13.052;2023-09-30T12:03:28;1.87;;;1.10;;
23206;SDS011;11773;52.570;13.052;2023-09-30T12:05:58;0.80;;;0.70;;
23206;SDS011;11773;52.570;13.052;2023-09-30T12:08:27;0.73;;;0.73;;
23206;SDS011;11773;52.570;13.052;2023-09-30T12:10:57;1.90;;;0.97;;
23206;SDS011;11773;52.570;13.052;2023-09-30T12:13:27;1.40;;;1.07;;
23206;SDS011;11773;52.570;13.052;2023-09-30T12:15:56;1.17;;;0.80;;
23206;SDS011;11773;52.570;13.052;2023-09-30T12:18:26;0.80;;;0.70;;
23206;SDS011;11773;52.570;13.052;2023-09-30T12:20:56;1.63;;;0.90;;
23206;SDS011;11773;52.570;13.052;2023-09-30T12:23:26;1.80;;;0.80;;
23206;SDS011;11773;52.570;13.052;2023-09-30T12:25:56;1.27;;;0.40;;
23206;SDS011;11773;52.570;13.052;2023-09-30T12:28:27;1.33;;;0.80;;
23206;SDS011;11773;52.570;13.052;2023-09-30T12:30:59;1.27;;;0.87;;
23206;SDS011;11773;52.570;13.052;2023-09-30T12:33:30;1.50;;;0.90;;
23206;SDS011;11773;52.570;13.052;2023-09-30T12:36:00;0.80;;;0.70;;
23206;SDS011;11773;52.570;13.052;2023-09-30T12:38:30;2.17;;;0.93;;
23206;SDS011;11773;52.570;13.052;2023-09-30T12:41:00;1.27;;;0.90;;
23206;SDS011;11773;52.570;13.052;2023-09-30T12:43:30;1.23;;;0.83;;
23206;SDS011;11773;52.570;13.052;2023-09-30T12:46:00;0.97;;;0.70;;
23206;SDS011;11773;52.570;13.052;2023-09-30T12:48:31;0.87;;;0.77;;
23206;SDS011;11773;52.570;13.052;2023-09-30T12:51:01;1.77;;;0.90;;
23206;SDS011;11773;52.570;13.052;2023-09-30T12:53:33;1.80;;;1.03;;
23206;SDS011;11773;52.570;13.052;2023-09-30T12:56:02;1.40;;;0.90;;
23206;SDS011;11773;52.570;13.052;2023-09-30T12:58:32;1.80;;;0.90;;
23206;SDS011;11773;52.570;13.052;2023-09-30T13:01:01;1.40;;;0.90;;
23206;SDS011;11773;52.570;13.052;2023-09-30T13:03:34;1.60;;;0.60;;
23206;SDS011;11773;52.570;13.052;2023-09-30T13:06:04;0.93;;;0.87;;
23206;SDS011;11773;52.570;13.052;2023-09-30T13:08:33;0.80;;;0.70;;
23206;SDS011;11773;52.570;13.052;2023-09-30T13:11:03;1.03;;;0.87;;
23206;SDS011;11773;52.570;13.052;2023-09-30T13:13:33;0.80;;;0.60;;
23206;SDS011;11773;52.570;13.052;2023-09-30T13:16:03;0.83;;;0.77;;
23206;SDS011;11773;52.570;13.052;2023-09-30T13:18:34;1.10;;;0.97;;
23206;SDS011;11773;52.570;13.052;2023-09-30T13:21:04;0.60;;;0.60;;
23206;SDS011;11773;52.570;13.052;2023-09-30T13:23:34;3.27;;;0.60;;
23206;SDS011;11773;52.570;13.052;2023-09-30T13:26:03;0.90;;;0.67;;
23206;SDS011;11773;52.570;13.052;2023-09-30T13:28:33;0.50;;;0.50;;
23206;SDS011;11773;52.570;13.052;2023-09-30T13:31:02;0.60;;;0.60;;
23206;SDS011;11773;52.570;13.052;2023-09-30T13:33:32;1.53;;;0.77;;
23206;SDS011;11773;52.570;13.052;2023-09-30T13:36:02;0.60;;;0.60;;
23206;SDS011;11773;52.570;13.052;2023-09-30T13:38:32;0.60;;;0.60;;
23206;SDS011;11773;52.570;13.052;2023-09-30T13:41:01;0.80;;;0.60;;
23206;SDS011;11773;52.570;13.052;2023-09-30T13:43:31;1.07;;;0.63;;
23206;SDS011;11773;52.570;13.052;2023-09-30T13:46:04;1.47;;;0.87;;
23206;SDS011;11773;52.570;13.052;2023-09-30T13:48:34;0.60;;;0.60;;
23206;SDS011;11773;52.570;13.052;2023-09-30T13:51:07;0.50;;;0.50;;
23206;SDS011;11773;52.570;13.052;2023-09-30T13:53:40;0.93;;;0.50;;
23206;SDS011;11773;52.570;13.052;2023-09-30T13:56:10;1.67;;;1.07;;
23206;SDS011;11773;52.570;13.052;2023-09-30T13:58:40;0.60;;;0.60;;
23206;SDS011;11773;52.570;13.052;2023-09-30T14:01:10;1.37;;;1.00;;
23206;SDS011;11773;52.570;13.052;2023-09-30T14:03:46;1.00;;;0.80;;
23206;SDS011;11773;52.570;13.052;2023-09-30T14:06:15;0.63;;;0.63;;
23206;SDS011;11773;52.570;13.052;2023-09-30T14:08:45;0.70;;;0.63;;
23206;SDS011;11773;52.570;13.052;2023-09-30T14:11:14;1.50;;;0.80;;
23206;SDS011;11773;52.570;13.052;2023-09-30T14:13:44;0.80;;;0.60;;
23206;SDS011;11773;52.570;13.052;2023-09-30T14:16:14;0.70;;;0.57;;
23206;SDS011;11773;52.570;13.052;2023-09-30T14:18:43;1.20;;;0.90;;
23206;SDS011;11773;52.570;13.052;2023-09-30T14:21:13;1.10;;;0.63;;
23206;SDS011;11773;52.570;13.052;2023-09-30T14:23:44;0.60;;;0.60;;
23206;SDS011;11773;52.570;13.052;2023-09-30T14:26:14;0.97;;;0.80;;
23206;SDS011;11773;52.570;13.052;2023-09-30T14:28:43;0.77;;;0.70;;
23206;SDS011;11773;52.570;13.052;2023-09-30T14:31:13;1.13;;;0.90;;
23206;SDS011;11773;52.570;13.052;2023-09-30T14:33:43;1.43;;;0.60;;
23206;SDS011;11773;52.570;13.052;2023-09-30T14:36:12;0.77;;;0.67;;
23206;SDS011;11773;52.570;13.052;2023-09-30T14:38:42;0.60;;;0.57;;
23206;SDS011;11773;52.570;13.052;2023-09-30T14:41:14;1.87;;;0.60;;
23206;SDS011;11773;52.570;13.052;2023-09-30T14:43:44;0.73;;;0.57;;
23206;SDS011;11773;52.570;13.052;2023-09-30T14:46:14;1.17;;;0.90;;
23206;SDS011;11773;52.570;13.052;2023-09-30T14:48:44;0.93;;;0.70;;
23206;SDS011;11773;52.570;13.052;2023-09-30T14:51:13;1.07;;;0.70;;
23206;SDS011;11773;52.570;13.052;2023-09-30T14:53:45;0.60;;;0.60;;
23206;SDS011;11773;52.570;13.052;2023-09-30T14:56:19;0.90;;;0.43;;
23206;SDS011;11773;52.570;13.052;2023-09-30T14:58:46;0.77;;;0.50;;
23206;SDS011;11773;52.570;13.052;2023-09-30T15:01:16;0.40;;;0.40;;
23206;SDS011;11773;52.570;13.052;2023-09-30T15:03:47;0.40;;;0.33;;
23206;SDS011;11773;52.570;13.052;2023-09-30T15:06:17;0.33;;;0.33;;
23206;SDS011;11773;52.570;13.052;2023-09-30T15:08:48;0.53;;;0.40;;
23206;SDS011;11773;52.570;13.052;2023-09-30T15:11:17;1.97;;;0.70;;
23206;SDS011;11773;52.570;13.052;2023-09-30T15:13:47;0.97;;;0.60;;